This demonstration page uses our WeatherBlox Daily Observations layout. Learn more.

41.55636, -103.73856

Hourly Observations for May 2, 2019

Temp ( °F °C ) Dew Point ( °F °C ) Humidity (%) Winds ( mph kmh ) Pressure ( in mb ) Visibility ( mi km ) Precip ( " mm )
12:58 am 00:58 Clear 38 3.4 27 -2.6 65 65 NNE 8 13 30.17 1022 10 16.0934 0 0
1:58 am 01:58 Clear 35 1.4 27 -2.9 73 73 NE 7 11 30.2 1023 10 16.0934 0 0
2:58 am 02:58 Clear 31 -0.8 25 -3.8 80 80 SE 6 9 30.23 1024 10 16.0934 0 0
3:58 am 03:58 Clear 30 -1.3 25 -3.9 83 83 S 7 11 30.23 1024 10 16.0934 0 0
4:58 am 04:58 Clear 28 -2.5 25 -3.9 90 90 S 8 13 30.26 1025 10 16.0934 0 0
5:58 am 05:58 Clear 28 -2.4 25 -3.7 91 91 S 9 15 30.24 1024 10 16.0934 0 0
6:58 am 06:58 Clear 28 -2 26 -3.4 90 90 SSW 15 24 30.23 1024 10 16.0934 0 0
9:58 am 09:58 Clear 29 -1.9 26 -3.3 90 90 SSW 17 28 30.21 1023 10 16.0934 0 0
10:58 am 10:58 Clear 28 -2.1 26 -3.4 91 91 SW 15 24 30.2 1023 10 16.0934 0 0
11:58 am 11:58 Sunny 29 -1.6 25 -3.7 86 86 SW 15 24 30.19 1022 10 16.0934 0 0
12:58 pm 12:58 Sunny 32 -0.1 27 -3 81 81 SW 15 24 30.18 1022 10 16.0934 0 0
1:58 pm 13:58 Mostly Cloudy 35 1.6 28 -2.1 77 77 SSW 17 28 30.19 1022 10 16.0934 0 0
2:58 pm 14:58 Sunny 41 4.8 28 -2.4 60 60 SSW 23 37 30.18 1022 10 16.0934 0 0
4:58 pm 16:58 Mostly Cloudy 48 9.1 28 -2 46 46 SSW 22 35 30.13 1020 10 16.0934 0 0
5:58 pm 17:58 Sunny 52 11.2 29 -1.5 42 42 SW 20 31 30.1 1019 10 16.0934 0 0
6:58 pm 18:58 Mostly Sunny 54 12 28 -2.4 37 37 SSW 20 31 30.04 1017 10 16.0934 0 0
7:58 pm 19:58 Mostly Cloudy 52 11.1 26 -3.6 36 36 WSW 12 19 29.88 1012 10 16.0934 0 0
8:58 pm 20:58 Mostly Cloudy 51 10.5 30 -0.9 45 45 SSW 16 26 30.04 1017 10 16.0934 0 0
9:58 pm 21:58 Mostly Cloudy 54 12 27 -2.8 36 36 W 21 33 30 1016 10 16.0934 0 0
10:58 pm 22:58 Mostly Sunny 53 11.8 27 -2.6 37 37 Calm 29.99 1016 10 16.0934 0 0
11:58 pm 23:58 Sunny 54 12 27 -2.6 36 36 Calm 29.99 1016 10 16.0934 0 0

Powered by AerisWeather